createdAt,value
2022-11-07T00:02:34.332Z,76.5
2022-11-07T00:05:22.442Z,76.7
2022-11-07T00:08:09.779Z,76.8
2022-11-07T00:10:57.072Z,76.9
2022-11-07T00:13:44.859Z,77.2
2022-11-07T00:16:32.659Z,77
2022-11-07T00:19:20.831Z,77.2
2022-11-07T00:22:08.233Z,76.9
2022-11-07T00:24:55.557Z,76.8
2022-11-07T00:27:42.969Z,77.1
2022-11-07T00:30:30.281Z,77
2022-11-07T00:33:17.755Z,77.3
2022-11-07T00:36:05.159Z,77.2
2022-11-07T00:38:54.504Z,77.4
2022-11-07T00:41:42.412Z,77
2022-11-07T00:44:33.273Z,77.6
2022-11-07T00:47:21.741Z,77.8
2022-11-07T00:50:09.051Z,77.5
2022-11-07T00:52:56.251Z,77.6
2022-11-07T00:55:43.467Z,77.5
2022-11-07T00:58:32.330Z,77.6
2022-11-07T01:01:21.905Z,77.8
2022-11-07T01:04:12.382Z,77.8
2022-11-07T01:07:31.872Z,77.8
2022-11-07T01:10:20.316Z,77.7
2022-11-07T01:13:07.624Z,77.5
2022-11-07T01:15:54.990Z,77.8
2022-11-07T01:18:42.385Z,77.8
2022-11-07T01:21:29.660Z,77.7
2022-11-07T01:24:17.303Z,77.7
2022-11-07T01:27:04.679Z,77.8
2022-11-07T01:29:52.022Z,77.8
2022-11-07T01:32:39.377Z,77.8
2022-11-07T01:35:26.638Z,77.8
2022-11-07T01:38:14.059Z,78
2022-11-07T01:41:01.431Z,77.8
2022-11-07T01:44:20.500Z,77.8
2022-11-07T01:47:41.310Z,77.9
2022-11-07T01:50:28.671Z,78.3
2022-11-07T01:53:16.423Z,78.1
2022-11-07T01:56:04.105Z,78
2022-11-07T01:58:58.351Z,78.1
2022-11-07T02:01:47.450Z,78.2
2022-11-07T02:04:35.422Z,78.3
2022-11-07T02:07:23.093Z,78.6
2022-11-07T02:10:10.611Z,78.4
2022-11-07T02:12:59.411Z,78.5
2022-11-07T02:15:48.501Z,78.5
2022-11-07T02:18:37.121Z,78.4
2022-11-07T02:21:26.884Z,78.5
2022-11-07T02:24:26.096Z,78.4
2022-11-07T02:27:17.823Z,78.6
2022-11-07T02:30:10.039Z,78.3
2022-11-07T02:33:05.392Z,78.9
2022-11-07T02:36:03.014Z,78.8
2022-11-07T02:38:54.453Z,78.6
2022-11-07T02:41:44.605Z,78.6
2022-11-07T02:44:32.985Z,78.5
2022-11-07T02:47:21.713Z,78.5
2022-11-07T02:50:09.102Z,78.6
2022-11-07T02:52:59.398Z,79
2022-11-07T02:55:46.749Z,78.6
2022-11-07T02:58:34.389Z,78.3
2022-11-07T03:01:27.528Z,78.4
2022-11-07T03:04:14.897Z,78.4
2022-11-07T03:07:02.115Z,78.4
2022-11-07T03:09:49.471Z,78.3
2022-11-07T03:12:37.034Z,78.5
2022-11-07T03:15:24.452Z,78.3
2022-11-07T03:18:11.743Z,78.3
2022-11-07T03:20:59.009Z,78.5
2022-11-07T03:23:46.639Z,78.7
2022-11-07T03:26:34.181Z,79
2022-11-07T03:29:22.477Z,78.6
2022-11-07T03:32:09.969Z,78.7
2022-11-07T03:34:57.461Z,78.9
2022-11-07T03:37:44.705Z,78.8
2022-11-07T03:40:32.955Z,78.5
2022-11-07T03:43:21.366Z,78.5
2022-11-07T03:46:08.639Z,78.6
2022-11-07T03:48:56.424Z,78.7
2022-11-07T03:51:43.710Z,78.8
2022-11-07T03:54:31.090Z,78.8
2022-11-07T03:57:18.971Z,78.9
2022-11-07T04:00:06.435Z,78.6
2022-11-07T04:02:55.629Z,78.9
2022-11-07T04:05:43.002Z,79.1
2022-11-07T04:08:31.353Z,78.8
2022-11-07T04:11:20.174Z,78.8
2022-11-07T04:14:39.378Z,79.1
2022-11-07T04:17:58.446Z,79.2
2022-11-07T04:20:45.705Z,78.7
2022-11-07T04:23:33.235Z,79
2022-11-07T04:26:21.869Z,79.1
2022-11-07T04:29:41.161Z,79.1
2022-11-07T04:32:28.477Z,79.1
2022-11-07T04:35:15.761Z,79.2
2022-11-07T04:38:04.142Z,79.2
2022-11-07T04:40:52.592Z,79.2
2022-11-07T04:43:40.337Z,79.3
2022-11-07T04:46:27.690Z,79.3
2022-11-07T04:49:14.939Z,79.2
2022-11-07T04:52:02.464Z,79.4
2022-11-07T04:54:49.686Z,79.5
2022-11-07T04:57:36.979Z,79.2
2022-11-07T05:00:24.303Z,79.3
2022-11-07T05:03:12.303Z,79
2022-11-07T05:06:00.040Z,79.2
2022-11-07T05:08:49.158Z,79.1
2022-11-07T05:11:36.605Z,78.9
2022-11-07T05:14:23.942Z,79.2
2022-11-07T05:17:11.463Z,79.3
2022-11-07T05:19:59.800Z,79.1
2022-11-07T05:22:50.106Z,79.1
2022-11-07T05:26:11.888Z,78.9
2022-11-07T05:28:59.122Z,78.5
2022-11-07T05:31:46.536Z,78.3
2022-11-07T05:34:34.121Z,78.6
2022-11-07T05:37:22.183Z,79.1
2022-11-07T05:40:09.537Z,78.9
2022-11-07T05:42:57.598Z,78.7
2022-11-07T05:45:46.043Z,78.7
2022-11-07T05:48:33.695Z,78.2
2022-11-07T05:51:22.491Z,78.1
2022-11-07T05:54:09.864Z,77.8
2022-11-07T05:56:57.086Z,77.3
2022-11-07T05:59:44.839Z,77.6
2022-11-07T06:02:32.399Z,77.6
2022-11-07T06:05:24.213Z,77.4
2022-11-07T06:08:12.622Z,77.2
2022-11-07T06:10:59.987Z,77.3
2022-11-07T06:13:50.207Z,77
2022-11-07T06:16:38.851Z,77.3
2022-11-07T06:19:26.183Z,77.1
2022-11-07T06:22:13.426Z,77.2
2022-11-07T06:25:00.763Z,77.2
2022-11-07T06:27:49.966Z,76.7
2022-11-07T06:30:38.325Z,76.9
2022-11-07T06:33:26.152Z,76.7
2022-11-07T06:36:14.604Z,76.7
2022-11-07T06:39:01.996Z,76.4
2022-11-07T06:41:49.403Z,76.6
2022-11-07T06:44:36.905Z,76.5
2022-11-07T06:47:24.110Z,76.6
2022-11-07T06:50:11.513Z,76.4
2022-11-07T06:52:58.826Z,76.2
2022-11-07T06:55:47.600Z,76.3
2022-11-07T06:58:35.146Z,76.2
2022-11-07T07:01:22.867Z,76
2022-11-07T07:04:10.494Z,76.2
2022-11-07T07:06:58.533Z,76.3
2022-11-07T07:09:45.912Z,76.3
2022-11-07T07:12:33.660Z,76.3
2022-11-07T07:15:22.485Z,76.4
2022-11-07T07:18:09.869Z,76.6
2022-11-07T07:20:57.409Z,76.9
2022-11-07T07:23:51.166Z,76.8
2022-11-07T07:26:39.074Z,76.6
2022-11-07T07:29:26.491Z,76.7
2022-11-07T07:32:13.989Z,76.7
2022-11-07T07:35:01.429Z,76.5
2022-11-07T07:37:49.999Z,76.6
2022-11-07T07:40:37.519Z,76.5
2022-11-07T07:43:24.886Z,76.3
2022-11-07T07:46:13.914Z,76.1
2022-11-07T07:49:05.019Z,75.2
2022-11-07T07:51:53.185Z,75.4
2022-11-07T07:54:41.015Z,75.7
2022-11-07T07:57:28.347Z,75.6
2022-11-07T08:00:15.789Z,75.6
2022-11-07T08:03:03.611Z,75.4
2022-11-07T08:05:54.742Z,75.6
2022-11-07T08:08:43.798Z,75.3
2022-11-07T08:11:31.234Z,75.3
2022-11-07T08:14:18.919Z,75.6
2022-11-07T08:17:06.408Z,75.1
2022-11-07T08:19:53.716Z,74.6
2022-11-07T08:22:41.012Z,75
2022-11-07T08:25:28.398Z,74.8
2022-11-07T08:28:15.891Z,74.6
2022-11-07T08:31:04.381Z,74.7
2022-11-07T08:33:54.029Z,74.5
2022-11-07T08:36:43.175Z,74.3
2022-11-07T08:39:30.506Z,74.1
2022-11-07T08:42:17.853Z,73.7
2022-11-07T08:45:05.342Z,73.8
2022-11-07T08:47:53.838Z,73.8
2022-11-07T08:50:42.882Z,73.7
2022-11-07T08:53:30.408Z,73
2022-11-07T08:56:18.734Z,73
2022-11-07T08:59:06.119Z,72.6
2022-11-07T09:02:38.966Z,73.4
2022-11-07T09:05:35.387Z,72.8
2022-11-07T09:08:23.730Z,73.1
2022-11-07T09:11:11.196Z,73.1
2022-11-07T09:14:00.141Z,73.1
2022-11-07T09:16:47.551Z,72.8
2022-11-07T09:19:35.164Z,72.5
2022-11-07T09:22:23.105Z,72.6
2022-11-07T09:25:10.445Z,72.6
2022-11-07T09:27:58.278Z,72.3
2022-11-07T09:30:47.964Z,72.5
2022-11-07T09:33:38.225Z,72.6
2022-11-07T09:36:25.566Z,72.8
2022-11-07T09:39:12.967Z,72.7
2022-11-07T09:42:00.471Z,72.8
2022-11-07T09:44:58.853Z,72.6
2022-11-07T09:47:47.287Z,72.8
2022-11-07T09:50:43.412Z,72.8
2022-11-07T09:53:34.100Z,72.9
2022-11-07T09:56:26.661Z,72.7
2022-11-07T09:59:17.066Z,72.9
2022-11-07T10:02:10.984Z,72.2
2022-11-07T10:05:00.903Z,72.3
2022-11-07T10:07:49.950Z,72.5
2022-11-07T10:10:47.323Z,72.1
2022-11-07T10:13:40.926Z,72.4
2022-11-07T10:16:46.534Z,72.5
2022-11-07T10:19:46.564Z,71.8
2022-11-07T10:22:49.021Z,72.2
2022-11-07T10:25:49.734Z,72.3
2022-11-07T10:28:45.664Z,72.1
2022-11-07T10:31:45.699Z,72.1
2022-11-07T10:34:39.821Z,72.1
2022-11-07T10:37:31.841Z,71.6
2022-11-07T10:40:19.803Z,72.1
2022-11-07T10:43:08.512Z,72.1
2022-11-07T10:46:02.924Z,71.9
2022-11-07T10:48:59.719Z,72
2022-11-07T10:51:48.705Z,71.9
2022-11-07T10:54:37.421Z,71.7
2022-11-07T10:57:24.832Z,71.3
2022-11-07T11:00:15.590Z,71.1
2022-11-07T11:03:10.061Z,70.7
2022-11-07T11:06:02.155Z,70.5
2022-11-07T11:09:06.419Z,70.6
2022-11-07T11:12:02.157Z,70.1
2022-11-07T11:14:51.387Z,70
2022-11-07T11:17:50.088Z,70
2022-11-07T11:20:47.215Z,68.9
2022-11-07T11:23:42.128Z,68.6
2022-11-07T11:26:31.656Z,68.6
2022-11-07T11:29:24.955Z,69.2
2022-11-07T11:32:19.385Z,68.5
2022-11-07T11:35:12.203Z,67.4
2022-11-07T11:38:13.388Z,68.1
2022-11-07T11:41:10.415Z,68.9
2022-11-07T11:44:05.064Z,68.6
2022-11-07T11:47:03.430Z,68.1
2022-11-07T11:50:00.159Z,68.6
2022-11-07T11:52:55.842Z,67.6
2022-11-07T11:55:49.651Z,68
2022-11-07T11:58:58.345Z,68.1
2022-11-07T12:02:07.479Z,68
2022-11-07T12:05:18.459Z,67.8
2022-11-07T12:08:20.600Z,67.4
2022-11-07T12:11:25.075Z,67.4
2022-11-07T12:14:22.824Z,67.6
2022-11-07T12:17:26.281Z,67.8
2022-11-07T12:20:21.830Z,67.4
2022-11-07T12:23:14.179Z,67.5
2022-11-07T12:26:10.381Z,67.3
2022-11-07T12:29:02.343Z,67.4
2022-11-07T12:32:04.381Z,67
2022-11-07T12:35:03.427Z,67.2
2022-11-07T12:38:07.679Z,67.4
2022-11-07T12:41:12.005Z,66.9
2022-11-07T12:44:09.650Z,67.5
2022-11-07T12:47:08.574Z,67.5
2022-11-07T12:50:07.645Z,67.3
2022-11-07T12:53:08.745Z,67.3
2022-11-07T12:56:08.911Z,67.3
2022-11-07T12:59:01.401Z,67.3
2022-11-07T13:01:55.010Z,67.7
2022-11-07T13:04:49.894Z,67.5
2022-11-07T13:07:41.798Z,67.6
2022-11-07T13:10:38.057Z,67.9
2022-11-07T13:13:38.488Z,68
2022-11-07T13:16:39.180Z,67.9
2022-11-07T13:19:36.403Z,68.1
2022-11-07T13:22:27.525Z,68.1
2022-11-07T13:25:21.213Z,68.5
2022-11-07T13:28:12.448Z,68.5
2022-11-07T13:31:23.300Z,68.7
2022-11-07T13:34:21.046Z,68.8
2022-11-07T13:37:10.365Z,69
2022-11-07T13:40:04.524Z,69.2
2022-11-07T13:43:07.908Z,69.2
2022-11-07T13:46:00.093Z,69.4
2022-11-07T13:48:49.805Z,69.6
2022-11-07T13:51:40.413Z,69.5
2022-11-07T13:54:30.380Z,69.5
2022-11-07T13:57:25.197Z,69.7
2022-11-07T14:00:19.684Z,69.8
2022-11-07T14:03:14.069Z,69.7
2022-11-07T14:06:12.231Z,69.6
2022-11-07T14:09:01.417Z,69.7
2022-11-07T14:11:50.918Z,69.7
2022-11-07T14:14:38.888Z,69.8
2022-11-07T14:17:26.349Z,69.8
2022-11-07T14:20:19.835Z,70
2022-11-07T14:23:07.450Z,70
2022-11-07T14:25:58.335Z,70.2
2022-11-07T14:28:48.837Z,70.2
2022-11-07T14:31:38.344Z,70.2
2022-11-07T14:34:25.713Z,70.3
2022-11-07T14:37:13.415Z,70.4
2022-11-07T14:40:03.716Z,70.5
2022-11-07T14:42:52.972Z,70.4
2022-11-07T14:46:10.805Z,70.3
2022-11-07T14:49:03.674Z,70.5
2022-11-07T14:51:51.413Z,70.5
2022-11-07T14:54:40.625Z,70.5
2022-11-07T14:57:29.389Z,70.4
2022-11-07T15:00:20.118Z,70.5
2022-11-07T15:03:08.012Z,70.4
2022-11-07T15:06:06.634Z,70.6
2022-11-07T15:09:07.723Z,70.6
2022-11-07T15:11:56.631Z,70.6
2022-11-07T15:14:45.646Z,70.8
2022-11-07T15:17:46.153Z,70.9
2022-11-07T15:20:35.816Z,71.1
2022-11-07T15:23:24.466Z,71.2
2022-11-07T15:26:15.208Z,71.4
2022-11-07T15:29:07.193Z,71.7
2022-11-07T15:32:00.583Z,71.5
2022-11-07T15:35:12.313Z,71.7
2022-11-07T15:38:10.655Z,72.2
2022-11-07T15:41:03.206Z,72.2
2022-11-07T15:43:50.799Z,72.4
2022-11-07T15:46:38.127Z,72.2
2022-11-07T15:49:26.243Z,72.5
2022-11-07T15:52:14.951Z,72.5
2022-11-07T15:55:02.285Z,72.4
2022-11-07T15:57:50.072Z,72.7
2022-11-07T16:00:38.983Z,72.4
2022-11-07T16:03:26.846Z,72.9
2022-11-07T16:06:14.216Z,72.7
2022-11-07T16:09:10.946Z,73
2022-11-07T16:12:02.155Z,73
2022-11-07T16:14:49.773Z,73.1
2022-11-07T16:17:40.152Z,73.2
2022-11-07T16:20:27.781Z,73.1
2022-11-07T16:23:18.046Z,73.4
2022-11-07T16:26:05.569Z,73.7
2022-11-07T16:28:55.609Z,73.7
2022-11-07T16:31:43.037Z,73.6
2022-11-07T16:34:30.452Z,73.9
2022-11-07T16:37:17.804Z,73.8
2022-11-07T16:40:05.431Z,73.9
2022-11-07T16:42:59.214Z,73.8
2022-11-07T16:45:48.055Z,73.9
2022-11-07T16:48:37.374Z,73.8
2022-11-07T16:51:25.256Z,74.3
2022-11-07T16:54:12.696Z,74.1
2022-11-07T16:57:00.055Z,74.2
2022-11-07T16:59:47.605Z,74.4
2022-11-07T17:02:37.001Z,74.4
2022-11-07T17:05:24.537Z,74.1
2022-11-07T17:08:11.847Z,74.1
2022-11-07T17:11:02.971Z,74.4
2022-11-07T17:13:51.551Z,74.5
2022-11-07T17:16:38.978Z,74.5
2022-11-07T17:19:29.342Z,74.8
2022-11-07T17:22:16.803Z,74.7
2022-11-07T17:25:04.599Z,74.5
2022-11-07T17:27:52.686Z,74.5
2022-11-07T17:30:41.069Z,74.6
2022-11-07T17:33:28.673Z,74.3
2022-11-07T17:36:16.233Z,74.4
2022-11-07T17:39:10.237Z,74.2
2022-11-07T17:42:00.646Z,74.1
2022-11-07T17:44:48.061Z,74.2
2022-11-07T17:47:35.561Z,74.2
2022-11-07T17:50:22.942Z,74.2
2022-11-07T17:53:10.326Z,74
2022-11-07T17:55:57.706Z,74.1
2022-11-07T17:58:45.170Z,74.2
2022-11-07T18:01:34.705Z,74.1
2022-11-07T18:04:23.830Z,74
2022-11-07T18:07:11.138Z,74.1
2022-11-07T18:09:58.641Z,73.9
2022-11-07T18:12:46.670Z,74
2022-11-07T18:15:34.390Z,73.9
2022-11-07T18:18:22.977Z,73.9
2022-11-07T18:21:11.641Z,73.9
2022-11-07T18:23:59.190Z,73.9
2022-11-07T18:26:47.310Z,74
2022-11-07T18:29:35.943Z,73.9
2022-11-07T18:32:24.541Z,74
2022-11-07T18:35:11.966Z,74
2022-11-07T18:37:59.293Z,74.1
2022-11-07T18:40:46.659Z,74.1
2022-11-07T18:43:41.145Z,74
2022-11-07T18:46:28.562Z,74
2022-11-07T18:49:15.765Z,74
2022-11-07T18:52:04.183Z,73.9
2022-11-07T18:54:51.412Z,74.1
2022-11-07T18:57:38.963Z,74.1
2022-11-07T19:00:26.961Z,73.9
2022-11-07T19:03:14.682Z,73.9
2022-11-07T19:06:02.225Z,73.8
2022-11-07T19:08:50.248Z,74
2022-11-07T19:11:37.953Z,73.9
2022-11-07T19:14:25.355Z,73.8
2022-11-07T19:17:15.801Z,73.8
2022-11-07T19:20:03.395Z,73.9
2022-11-07T19:22:52.324Z,73.9
2022-11-07T19:25:39.683Z,73.7
2022-11-07T19:28:27.915Z,73.8
2022-11-07T19:31:15.298Z,73.7
2022-11-07T19:34:02.801Z,73.7
2022-11-07T19:36:51.110Z,73.7
2022-11-07T19:39:38.484Z,73.6
2022-11-07T19:42:25.924Z,73.8
2022-11-07T19:45:13.415Z,73.8
2022-11-07T19:48:00.879Z,73.8
2022-11-07T19:50:48.452Z,73.7
2022-11-07T19:53:36.133Z,73.8
2022-11-07T19:56:23.623Z,73.8
2022-11-07T19:59:13.233Z,73.8
2022-11-07T20:02:30.550Z,73.7
2022-11-07T20:05:19.222Z,73.7
2022-11-07T20:08:08.729Z,73.7
2022-11-07T20:10:56.213Z,73.7
2022-11-07T20:13:43.580Z,73.8
2022-11-07T20:16:31.399Z,73.8
2022-11-07T20:19:21.370Z,73.7
2022-11-07T20:22:08.804Z,73.8
2022-11-07T20:24:58.046Z,73.8
2022-11-07T20:27:45.461Z,73.8
2022-11-07T20:30:33.822Z,73.8
2022-11-07T20:33:25.640Z,73.8
2022-11-07T20:36:13.035Z,73.7
2022-11-07T20:39:01.837Z,73.7
2022-11-07T20:41:49.669Z,73.7
2022-11-07T20:44:37.849Z,73.9
2022-11-07T20:47:26.655Z,73.9
2022-11-07T20:50:14.064Z,73.8
2022-11-07T20:53:01.567Z,73.9
2022-11-07T20:55:49.444Z,74
2022-11-07T20:58:36.816Z,74.1
2022-11-07T21:01:27.070Z,74.2
2022-11-07T21:04:20.273Z,74
2022-11-07T21:07:07.637Z,74.1
2022-11-07T21:09:55.033Z,74.1
2022-11-07T21:12:42.463Z,74.1
2022-11-07T21:15:29.904Z,74.2
2022-11-07T21:18:17.830Z,74.2
2022-11-07T21:21:05.684Z,74.2
2022-11-07T21:23:54.904Z,74.2
2022-11-07T21:26:43.300Z,74.3
2022-11-07T21:29:30.820Z,74.2
2022-11-07T21:32:18.308Z,74.2
2022-11-07T21:35:05.681Z,74.3
2022-11-07T21:37:53.994Z,74.2
2022-11-07T21:40:41.266Z,74.1
2022-11-07T21:43:28.546Z,74.1
2022-11-07T21:46:15.920Z,74
2022-11-07T21:49:05.938Z,74.1
2022-11-07T21:51:53.522Z,74.1
2022-11-07T21:54:41.630Z,74
2022-11-07T21:57:29.366Z,74
2022-11-07T22:00:16.647Z,73.9
2022-11-07T22:03:04.452Z,73.9
2022-11-07T22:05:51.784Z,73.9
2022-11-07T22:08:39.110Z,73.9
2022-11-07T22:11:26.677Z,73.8
2022-11-07T22:14:13.988Z,73.9
2022-11-07T22:17:03.080Z,73.9
2022-11-07T22:19:50.770Z,73.9
2022-11-07T22:22:38.140Z,73.8
2022-11-07T22:25:25.574Z,73.9
2022-11-07T22:28:12.826Z,73.8
2022-11-07T22:31:00.229Z,73.9
2022-11-07T22:33:50.961Z,73.8
2022-11-07T22:36:39.680Z,73.8
2022-11-07T22:39:27.015Z,73.9
2022-11-07T22:42:17.347Z,73.8
2022-11-07T22:45:07.048Z,73.9
2022-11-07T22:47:54.948Z,73.9
2022-11-07T22:50:42.428Z,73.8
2022-11-07T22:53:30.080Z,73.9
2022-11-07T22:56:18.174Z,73.8
2022-11-07T22:59:05.573Z,73.9
2022-11-07T23:01:53.437Z,73.8
2022-11-07T23:04:41.039Z,73.9
2022-11-07T23:07:28.503Z,73.8
2022-11-07T23:10:15.913Z,73.8
2022-11-07T23:13:04.003Z,74
2022-11-07T23:15:51.297Z,74
2022-11-07T23:18:38.910Z,74
2022-11-07T23:21:26.734Z,73.8
2022-11-07T23:24:14.800Z,73.8
2022-11-07T23:27:02.860Z,73.7
2022-11-07T23:29:50.212Z,73.7
2022-11-07T23:32:37.607Z,73.7
2022-11-07T23:35:26.672Z,73.8
2022-11-07T23:38:17.086Z,73.8
2022-11-07T23:41:04.709Z,73.9
2022-11-07T23:43:53.936Z,73.9
2022-11-07T23:46:41.289Z,74.1
2022-11-07T23:50:00.996Z,73.9
2022-11-07T23:53:20.640Z,74.1
2022-11-07T23:56:39.712Z,74.1
2022-11-07T23:59:27.893Z,74.1
